createdAt,value
2018-11-03T00:00:10.094Z,22
2018-11-03T00:02:04.825Z,22
2018-11-03T00:04:10.639Z,22
2018-11-03T00:06:05.435Z,22
2018-11-03T00:08:05.253Z,22.1
2018-11-03T00:10:05.031Z,22.1
2018-11-03T00:12:04.771Z,22
2018-11-03T00:14:08.116Z,22
2018-11-03T00:16:05.429Z,22
2018-11-03T00:18:10.409Z,22
2018-11-03T00:20:07.674Z,22
2018-11-03T00:22:05.452Z,22
2018-11-03T00:24:04.816Z,22
2018-11-03T00:26:10.668Z,22
2018-11-03T00:28:07.973Z,22
2018-11-03T00:30:05.433Z,22
2018-11-03T00:32:05.201Z,22
2018-11-03T00:34:07.489Z,22
2018-11-03T00:36:04.791Z,22
2018-11-03T00:38:04.857Z,22
2018-11-03T00:40:05.741Z,22
2018-11-03T00:42:05.030Z,22
2018-11-03T00:44:05.181Z,22
2018-11-03T00:46:06.683Z,22
2018-11-03T00:48:10.176Z,22
2018-11-03T00:50:07.457Z,22
2018-11-03T00:52:05.168Z,22
2018-11-03T00:54:04.894Z,22
2018-11-03T00:56:05.195Z,22
2018-11-03T00:58:05.041Z,22
2018-11-03T01:00:04.760Z,22
2018-11-03T01:02:08.052Z,22
2018-11-03T01:04:04.803Z,22
2018-11-03T01:06:05.503Z,22
2018-11-03T01:08:05.381Z,22
2018-11-03T01:10:07.655Z,22
2018-11-03T01:12:08.072Z,22
2018-11-03T01:14:05.604Z,22
2018-11-03T01:16:09.863Z,22
2018-11-03T01:18:05.236Z,22
2018-11-03T01:20:05.021Z,22
2018-11-03T01:22:04.753Z,22
2018-11-03T01:24:05.545Z,22
2018-11-03T01:26:05.350Z,22
2018-11-03T01:28:04.792Z,22
2018-11-03T01:30:05.176Z,22
2018-11-03T01:32:04.973Z,22
2018-11-03T01:34:05.019Z,22
2018-11-03T01:36:05.218Z,22
2018-11-03T01:38:04.754Z,22
2018-11-03T01:40:07.144Z,22
2018-11-03T01:42:04.914Z,22
2018-11-03T01:44:04.680Z,21.9
2018-11-03T01:46:05.512Z,21.9
2018-11-03T01:48:05.255Z,21.9
2018-11-03T01:50:04.959Z,22
2018-11-03T01:52:04.710Z,22
2018-11-03T01:54:08.039Z,22
2018-11-03T01:56:04.840Z,22
2018-11-03T01:58:07.760Z,22
2018-11-03T02:00:05.464Z,22
2018-11-03T02:02:05.564Z,22
2018-11-03T02:04:05.310Z,21.9
2018-11-03T02:06:10.504Z,21.9
2018-11-03T02:08:10.284Z,21.9
2018-11-03T02:10:05.498Z,21.9
2018-11-03T02:12:05.254Z,21.9
2018-11-03T02:14:10.126Z,21.9
2018-11-03T02:16:04.839Z,21.9
2018-11-03T02:18:04.758Z,21.9
2018-11-03T02:20:05.537Z,22
2018-11-03T02:22:07.884Z,21.9
2018-11-03T02:24:05.539Z,21.9
2018-11-03T02:26:05.285Z,21.9
2018-11-03T02:28:10.498Z,21.9
2018-11-03T02:30:10.616Z,21.9
2018-11-03T02:32:07.879Z,21.9
2018-11-03T02:34:04.722Z,22
2018-11-03T02:36:05.579Z,21.9
2018-11-03T02:38:05.302Z,21.9
2018-11-03T02:40:07.577Z,21.9
2018-11-03T02:42:07.867Z,21.9
2018-11-03T02:44:08.157Z,21.9
2018-11-03T02:46:07.515Z,21.9
2018-11-03T02:48:05.372Z,21.9
2018-11-03T02:50:05.150Z,21.9
2018-11-03T02:52:05.022Z,21.9
2018-11-03T02:54:04.739Z,21.9
2018-11-03T02:56:07.991Z,21.9
2018-11-03T02:58:04.727Z,21.9
2018-11-03T03:00:05.037Z,21.9
2018-11-03T03:02:04.807Z,21.9
2018-11-03T03:04:05.549Z,21.9
2018-11-03T03:06:05.307Z,21.9
2018-11-03T03:08:05.284Z,21.9
2018-11-03T03:10:04.988Z,21.9
2018-11-03T03:12:04.811Z,21.9
2018-11-03T03:14:08.002Z,22
2018-11-03T03:16:04.786Z,21.9
2018-11-03T03:18:07.318Z,21.9
2018-11-03T03:20:05.518Z,21.8
2018-11-03T03:22:05.251Z,21.9
2018-11-03T03:24:05.060Z,21.9
2018-11-03T03:26:12.376Z,21.9
2018-11-03T03:28:04.659Z,21.9
2018-11-03T03:30:05.418Z,21.8
2018-11-03T03:32:04.801Z,21.9
2018-11-03T03:34:05.536Z,21.9
2018-11-03T03:36:05.349Z,21.9
2018-11-03T03:38:05.053Z,21.9
2018-11-03T03:40:05.029Z,21.9
2018-11-03T03:42:04.972Z,21.8
2018-11-03T03:44:04.711Z,21.9
2018-11-03T03:46:05.496Z,21.9
2018-11-03T03:48:04.737Z,21.9
2018-11-03T03:50:05.525Z,21.8
2018-11-03T03:52:05.317Z,21.8
2018-11-03T03:54:12.647Z,21.8
2018-11-03T03:56:05.410Z,21.8
2018-11-03T03:58:07.709Z,21.8
2018-11-03T04:00:04.972Z,21.8
2018-11-03T04:02:05.227Z,21.8
2018-11-03T04:04:07.499Z,21.9
2018-11-03T04:06:04.708Z,21.9
2018-11-03T04:08:07.269Z,21.8
2018-11-03T04:10:05.003Z,21.8
2018-11-03T04:12:04.775Z,21.8
2018-11-03T04:14:05.558Z,21.8
2018-11-03T04:16:05.288Z,21.8
2018-11-03T04:18:08.084Z,21.8
2018-11-03T04:20:04.767Z,21.8
2018-11-03T04:22:05.434Z,21.8
2018-11-03T04:24:05.125Z,21.9
2018-11-03T04:26:04.881Z,21.8
2018-11-03T04:28:04.767Z,21.8
2018-11-03T04:30:05.481Z,21.8
2018-11-03T04:32:05.185Z,21.8
2018-11-03T04:34:05.019Z,21.8
2018-11-03T04:36:04.743Z,21.9
2018-11-03T04:38:05.064Z,21.8
2018-11-03T04:40:04.762Z,21.8
2018-11-03T04:42:05.554Z,21.8
2018-11-03T04:44:10.367Z,21.8
2018-11-03T04:46:05.114Z,21.8
2018-11-03T04:48:05.485Z,21.8
2018-11-03T04:50:07.723Z,21.8
2018-11-03T04:52:08.045Z,21.9
2018-11-03T04:54:04.731Z,21.8
2018-11-03T04:56:08.024Z,21.8
2018-11-03T04:58:10.658Z,21.8
2018-11-03T05:00:04.923Z,21.8
2018-11-03T05:02:04.700Z,21.8
2018-11-03T05:04:05.408Z,21.8
2018-11-03T05:06:07.969Z,21.9
2018-11-03T05:08:04.621Z,21.8
2018-11-03T05:10:05.304Z,21.8
2018-11-03T05:12:05.135Z,21.8
2018-11-03T05:14:07.348Z,21.8
2018-11-03T05:16:04.855Z,21.8
2018-11-03T05:18:10.591Z,21.7
2018-11-03T05:20:04.847Z,21.7
2018-11-03T05:22:05.113Z,21.8
2018-11-03T05:24:04.875Z,21.8
2018-11-03T05:26:04.660Z,21.8
2018-11-03T05:28:05.297Z,21.7
2018-11-03T05:30:05.297Z,21.7
2018-11-03T05:32:10.057Z,21.7
2018-11-03T05:34:04.816Z,21.8
2018-11-03T05:36:13.772Z,21.7
2018-11-03T05:38:05.066Z,21.8
2018-11-03T05:40:04.747Z,21.8
2018-11-03T05:42:05.520Z,21.8
2018-11-03T05:44:05.259Z,21.8
2018-11-03T05:46:10.542Z,21.7
2018-11-03T05:48:07.926Z,21.7
2018-11-03T05:50:04.657Z,21.7
2018-11-03T05:52:05.467Z,21.7
2018-11-03T05:54:04.979Z,21.7
2018-11-03T05:56:05.226Z,21.7
2018-11-03T05:58:10.219Z,21.7
2018-11-03T06:00:04.997Z,21.7
2018-11-03T06:02:07.252Z,21.7
2018-11-03T06:04:05.518Z,21.7
2018-11-03T06:06:05.472Z,21.7
2018-11-03T06:08:05.488Z,21.6
2018-11-03T06:10:07.873Z,21.7
2018-11-03T06:12:05.578Z,21.7
2018-11-03T06:14:05.268Z,21.6
2018-11-03T06:16:04.949Z,21.7
2018-11-03T06:18:08.713Z,21.7
2018-11-03T06:20:07.922Z,21.7
2018-11-03T06:22:04.618Z,21.7
2018-11-03T06:24:04.919Z,21.7
2018-11-03T06:26:04.638Z,21.7
2018-11-03T06:28:05.344Z,21.7
2018-11-03T06:30:05.085Z,21.6
2018-11-03T06:32:04.831Z,21.6
2018-11-03T06:34:04.778Z,21.5
2018-11-03T06:36:05.615Z,21.6
2018-11-03T06:38:05.433Z,21.6
2018-11-03T06:40:04.716Z,21.6
2018-11-03T06:42:04.970Z,21.6
2018-11-03T06:44:12.322Z,21.6
2018-11-03T06:46:07.849Z,21.6
2018-11-03T06:48:04.771Z,21.6
2018-11-03T06:50:08.040Z,21.6
2018-11-03T06:52:04.889Z,21.7
2018-11-03T06:54:05.052Z,21.7
2018-11-03T06:56:07.835Z,21.6
2018-11-03T06:58:04.659Z,21.6
2018-11-03T07:00:05.451Z,21.7
2018-11-03T07:02:05.188Z,21.7
2018-11-03T07:04:10.052Z,21.6
2018-11-03T07:06:04.780Z,21.6
2018-11-03T07:08:05.037Z,21.6
2018-11-03T07:10:05.281Z,21.7
2018-11-03T07:12:05.637Z,21.7
2018-11-03T07:14:04.746Z,21.7
2018-11-03T07:16:05.796Z,21.7
2018-11-03T07:18:04.929Z,21.8
2018-11-03T07:20:04.662Z,21.8
2018-11-03T07:22:07.962Z,21.9
2018-11-03T07:24:09.666Z,21.9
2018-11-03T07:26:04.831Z,21.9
2018-11-03T07:28:05.635Z,22
2018-11-03T07:30:04.912Z,21.9
2018-11-03T07:32:04.601Z,22
2018-11-03T07:34:05.275Z,22
2018-11-03T07:36:05.559Z,22.1
2018-11-03T07:38:04.754Z,22.1
2018-11-03T07:40:12.319Z,22.1
2018-11-03T07:42:05.160Z,22.1
2018-11-03T07:44:07.476Z,22.1
2018-11-03T07:46:05.246Z,22.1
2018-11-03T07:48:04.799Z,22.2
2018-11-03T07:50:04.926Z,22.1
2018-11-03T07:52:04.642Z,22.1
2018-11-03T07:54:08.901Z,22.1
2018-11-03T07:56:05.192Z,22.1
2018-11-03T07:58:04.923Z,22.1
2018-11-03T08:00:07.162Z,22.1
2018-11-03T08:02:09.039Z,22.1
2018-11-03T08:04:05.428Z,22.1
2018-11-03T08:06:05.444Z,22.1
2018-11-03T08:08:07.727Z,22.1
2018-11-03T08:10:04.990Z,22.1
2018-11-03T08:12:07.814Z,22.1
2018-11-03T08:14:05.130Z,22.1
2018-11-03T08:16:05.152Z,22
2018-11-03T08:18:05.617Z,22
2018-11-03T08:20:07.875Z,22
2018-11-03T08:22:05.592Z,22
2018-11-03T08:24:04.872Z,22
2018-11-03T08:26:05.624Z,22
2018-11-03T08:28:05.343Z,22
2018-11-03T08:30:05.596Z,22
2018-11-03T08:32:07.878Z,22
2018-11-03T08:34:05.163Z,22
2018-11-03T08:36:12.479Z,21.9
2018-11-03T08:38:10.278Z,21.9
2018-11-03T08:40:05.066Z,21.9
2018-11-03T08:42:07.341Z,22
2018-11-03T08:44:05.129Z,21.9
2018-11-03T08:46:05.449Z,22
2018-11-03T08:48:05.194Z,22
2018-11-03T08:50:05.270Z,22
2018-11-03T08:52:05.055Z,22.1
2018-11-03T08:54:04.870Z,22
2018-11-03T08:56:10.773Z,22
2018-11-03T08:58:05.436Z,22
2018-11-03T09:00:09.898Z,22
2018-11-03T09:02:08.128Z,22.1
2018-11-03T09:04:20.031Z,22.1
2018-11-03T09:06:04.924Z,22.1
2018-11-03T09:08:04.950Z,22.1
2018-11-03T09:10:04.726Z,22.1
2018-11-03T09:12:05.502Z,22.1
2018-11-03T09:14:05.290Z,22.1
2018-11-03T09:16:05.634Z,22.1
2018-11-03T09:18:05.044Z,22.2
2018-11-03T09:20:05.268Z,22.1
2018-11-03T09:22:05.024Z,22.2
2018-11-03T09:24:07.309Z,22.2
2018-11-03T09:26:05.702Z,22.2
2018-11-03T09:28:05.528Z,22.2
2018-11-03T09:30:05.255Z,22.2
2018-11-03T09:32:05.633Z,22.2
2018-11-03T09:34:04.723Z,22.2
2018-11-03T09:36:05.522Z,22.3
2018-11-03T09:38:05.357Z,22.3
2018-11-03T09:40:05.065Z,22.3
2018-11-03T09:42:05.311Z,22.3
2018-11-03T09:44:04.993Z,22.3
2018-11-03T09:46:04.681Z,22.3
2018-11-03T09:48:05.257Z,22.2
2018-11-03T09:50:04.977Z,22.3
2018-11-03T09:52:04.787Z,22.3
2018-11-03T09:54:05.592Z,22.3
2018-11-03T09:56:05.412Z,22.3
2018-11-03T09:58:04.604Z,22.3
2018-11-03T10:00:05.354Z,22.3
2018-11-03T10:02:05.118Z,22.3
2018-11-03T10:04:07.894Z,22.2
2018-11-03T10:06:04.703Z,22.2
2018-11-03T10:08:04.800Z,22.2
2018-11-03T10:10:05.123Z,22.2
2018-11-03T10:12:10.000Z,22.2
2018-11-03T10:14:04.759Z,22.2
2018-11-03T10:16:10.511Z,22.2
2018-11-03T10:18:07.169Z,22.2
2018-11-03T10:20:04.882Z,22.2
2018-11-03T10:22:04.783Z,22.2
2018-11-03T10:24:14.927Z,22.1
2018-11-03T10:26:07.181Z,22.2
2018-11-03T10:28:04.598Z,22.1
2018-11-03T10:30:07.873Z,22.2
2018-11-03T10:32:10.680Z,22.1
2018-11-03T10:34:08.009Z,22.1
2018-11-03T10:36:04.798Z,22.1
2018-11-03T10:38:08.017Z,22.1
2018-11-03T10:40:07.296Z,22.1
2018-11-03T10:42:10.117Z,22
2018-11-03T10:44:05.059Z,22
2018-11-03T10:46:04.779Z,22.1
2018-11-03T10:48:04.662Z,22.1
2018-11-03T10:50:04.948Z,22
2018-11-03T10:52:04.654Z,22.1
2018-11-03T10:54:05.428Z,22.1
2018-11-03T10:56:05.121Z,22
2018-11-03T10:58:05.347Z,22
2018-11-03T11:00:05.004Z,22.1
2018-11-03T11:02:04.732Z,22
2018-11-03T11:04:05.403Z,22.1
2018-11-03T11:06:05.162Z,22.1
2018-11-03T11:08:04.905Z,22.1
2018-11-03T11:10:08.138Z,22
2018-11-03T11:12:04.960Z,22
2018-11-03T11:14:04.787Z,22.1
2018-11-03T11:16:05.064Z,22
2018-11-03T11:18:04.818Z,22
2018-11-03T11:20:05.658Z,22
2018-11-03T11:22:05.575Z,22.1
2018-11-03T11:24:05.480Z,22
2018-11-03T11:26:05.507Z,22.1
2018-11-03T11:28:05.258Z,22
2018-11-03T11:30:10.075Z,22
2018-11-03T11:32:06.013Z,22
2018-11-03T11:34:05.558Z,22
2018-11-03T11:36:05.339Z,22
2018-11-03T11:38:05.186Z,22
2018-11-03T11:40:04.647Z,22
2018-11-03T11:42:10.382Z,22
2018-11-03T11:44:05.162Z,22
2018-11-03T11:46:04.868Z,22
2018-11-03T11:48:04.618Z,22
2018-11-03T11:50:04.922Z,22
2018-11-03T11:52:09.682Z,21.9
2018-11-03T11:54:04.910Z,21.9
2018-11-03T11:56:04.680Z,22
2018-11-03T11:58:05.555Z,21.9
2018-11-03T12:00:08.138Z,22
2018-11-03T12:02:04.915Z,22
2018-11-03T12:04:04.826Z,22
2018-11-03T12:06:10.157Z,21.9
2018-11-03T12:08:05.021Z,21.9
2018-11-03T12:10:04.847Z,21.9
2018-11-03T12:12:05.383Z,21.9
2018-11-03T12:14:05.075Z,21.9
2018-11-03T12:16:04.966Z,21.9
2018-11-03T12:18:05.297Z,22
2018-11-03T12:20:07.605Z,22
2018-11-03T12:22:05.278Z,21.9
2018-11-03T12:24:04.980Z,22
2018-11-03T12:26:07.268Z,21.9
2018-11-03T12:28:05.523Z,21.9
2018-11-03T12:30:05.278Z,21.8
2018-11-03T12:32:05.022Z,21.9
2018-11-03T12:34:07.303Z,21.9
2018-11-03T12:36:05.620Z,21.9
2018-11-03T12:38:07.885Z,21.9
2018-11-03T12:40:05.190Z,21.9
2018-11-03T12:42:04.881Z,21.9
2018-11-03T12:44:05.618Z,21.9
2018-11-03T12:46:04.969Z,22
2018-11-03T12:48:07.389Z,21.9
2018-11-03T12:50:05.672Z,21.9
2018-11-03T12:52:04.935Z,21.9
2018-11-03T12:54:04.654Z,21.9
2018-11-03T12:56:05.404Z,21.9
2018-11-03T12:58:07.684Z,21.9
2018-11-03T13:00:05.505Z,21.9
2018-11-03T13:02:05.218Z,21.9
2018-11-03T13:04:05.447Z,21.9
2018-11-03T13:06:05.218Z,21.9
2018-11-03T13:08:10.083Z,21.9
2018-11-03T13:10:04.925Z,21.9
2018-11-03T13:12:05.453Z,21.9
2018-11-03T13:14:05.001Z,21.9
2018-11-03T13:16:04.705Z,21.9
2018-11-03T13:18:04.705Z,21.9
2018-11-03T13:20:07.967Z,21.9
2018-11-03T13:22:04.678Z,21.9
2018-11-03T13:24:05.402Z,21.9
2018-11-03T13:26:05.063Z,21.9
2018-11-03T13:28:05.269Z,22
2018-11-03T13:30:04.951Z,21.9
2018-11-03T13:32:04.649Z,21.9
2018-11-03T13:34:05.355Z,22
2018-11-03T13:36:08.122Z,22
2018-11-03T13:38:04.846Z,22
2018-11-03T13:40:08.083Z,22
2018-11-03T13:42:09.898Z,22
2018-11-03T13:44:05.523Z,22
2018-11-03T13:46:05.258Z,22
2018-11-03T13:48:04.956Z,22
2018-11-03T13:50:04.687Z,22
2018-11-03T13:52:07.534Z,22
2018-11-03T13:54:05.245Z,22.1
2018-11-03T13:56:04.933Z,22
2018-11-03T13:58:05.188Z,22
2018-11-03T14:00:05.447Z,22
2018-11-03T14:02:07.724Z,22
2018-11-03T14:04:07.474Z,22
2018-11-03T14:06:05.190Z,22
2018-11-03T14:08:04.888Z,22
2018-11-03T14:10:05.546Z,22
2018-11-03T14:12:05.383Z,22
2018-11-03T14:14:05.084Z,22.1
2018-11-03T14:16:04.849Z,22.1
2018-11-03T14:18:04.732Z,22.1
2018-11-03T14:20:10.539Z,22.1
2018-11-03T14:22:05.228Z,22.1
2018-11-03T14:24:04.948Z,22.1
2018-11-03T14:26:04.707Z,22.2
2018-11-03T14:28:05.507Z,22.2
2018-11-03T14:30:07.270Z,22.1
2018-11-03T14:32:05.471Z,22.1
2018-11-03T14:34:05.193Z,22.1
2018-11-03T14:36:04.919Z,22.2
2018-11-03T14:38:07.414Z,22.1
2018-11-03T14:40:05.105Z,22.1
2018-11-03T14:42:04.787Z,22.2
2018-11-03T14:44:05.016Z,22.2
2018-11-03T14:46:07.261Z,22.1
2018-11-03T14:48:04.943Z,22.1
2018-11-03T14:50:04.681Z,22.1
2018-11-03T14:52:05.436Z,22.1
2018-11-03T14:54:04.632Z,22.1
2018-11-03T14:56:05.558Z,22.1
2018-11-03T14:58:04.761Z,22
2018-11-03T15:00:05.487Z,22.1
2018-11-03T15:02:10.003Z,22.1
2018-11-03T15:04:04.747Z,22.1
2018-11-03T15:06:05.239Z,22.1
2018-11-03T15:08:04.953Z,22.1
2018-11-03T15:10:04.621Z,22.1
2018-11-03T15:12:05.306Z,22
2018-11-03T15:14:05.279Z,22.1
2018-11-03T15:16:05.088Z,22.1
2018-11-03T15:18:05.488Z,22.1
2018-11-03T15:20:04.705Z,22.1
2018-11-03T15:22:05.457Z,22.1
2018-11-03T15:24:05.139Z,22.1
2018-11-03T15:26:04.810Z,22.1
2018-11-03T15:28:05.538Z,22
2018-11-03T15:30:07.788Z,22
2018-11-03T15:32:05.511Z,22
2018-11-03T15:34:05.294Z,22
2018-11-03T15:36:04.975Z,22
2018-11-03T15:38:07.219Z,21.9
2018-11-03T15:40:07.488Z,22
2018-11-03T15:42:05.203Z,22
2018-11-03T15:44:04.998Z,22
2018-11-03T15:46:05.374Z,22
2018-11-03T15:48:05.667Z,22
2018-11-03T15:50:06.481Z,22
2018-11-03T15:52:07.564Z,22
2018-11-03T15:54:05.237Z,21.9
2018-11-03T15:56:05.481Z,22
2018-11-03T15:58:05.183Z,21.9
2018-11-03T16:00:05.412Z,21.9
2018-11-03T16:02:05.146Z,21.8
2018-11-03T16:04:04.999Z,21.8
2018-11-03T16:06:07.435Z,21.9
2018-11-03T16:08:05.129Z,21.9
2018-11-03T16:10:07.348Z,21.9
2018-11-03T16:12:05.216Z,21.9
2018-11-03T16:14:05.571Z,21.8
2018-11-03T16:16:10.303Z,21.8
2018-11-03T16:18:05.164Z,21.8
2018-11-03T16:20:04.856Z,21.8
2018-11-03T16:22:08.120Z,21.8
2018-11-03T16:24:04.802Z,21.8
2018-11-03T16:26:05.568Z,21.8
2018-11-03T16:28:05.217Z,21.9
2018-11-03T16:30:05.503Z,21.8
2018-11-03T16:32:04.773Z,21.8
2018-11-03T16:34:05.004Z,21.8
2018-11-03T16:36:07.270Z,21.8
2018-11-03T16:38:05.095Z,21.8
2018-11-03T16:40:04.776Z,21.7
2018-11-03T16:42:07.591Z,21.7
2018-11-03T16:44:05.270Z,21.7
2018-11-03T16:46:07.629Z,21.8
2018-11-03T16:48:05.331Z,21.7
2018-11-03T16:50:10.146Z,21.8
2018-11-03T16:52:04.911Z,21.7
2018-11-03T16:54:04.685Z,21.8
2018-11-03T16:56:05.370Z,21.8
2018-11-03T16:58:04.620Z,21.7
2018-11-03T17:00:07.831Z,21.7
2018-11-03T17:02:05.547Z,21.7
2018-11-03T17:04:05.244Z,21.7
2018-11-03T17:06:04.922Z,21.7
2018-11-03T17:08:04.635Z,21.8
2018-11-03T17:10:07.894Z,21.7
2018-11-03T17:12:07.369Z,21.7
2018-11-03T17:14:07.595Z,21.7
2018-11-03T17:16:07.365Z,21.7
2018-11-03T17:18:05.313Z,21.7
2018-11-03T17:20:05.039Z,21.7
2018-11-03T17:22:04.732Z,21.7
2018-11-03T17:24:05.436Z,21.7
2018-11-03T17:26:05.257Z,21.7
2018-11-03T17:28:04.960Z,21.8
2018-11-03T17:30:05.211Z,21.8
2018-11-03T17:32:04.922Z,21.8
2018-11-03T17:34:07.178Z,21.7
2018-11-03T17:36:10.577Z,21.7
2018-11-03T17:38:07.647Z,21.7
2018-11-03T17:40:04.970Z,21.7
2018-11-03T17:42:04.656Z,21.7
2018-11-03T17:44:10.273Z,21.7
2018-11-03T17:46:05.541Z,21.7
2018-11-03T17:48:04.858Z,21.7
2018-11-03T17:50:05.553Z,21.6
2018-11-03T17:52:05.260Z,21.7
2018-11-03T17:54:10.037Z,21.7
2018-11-03T17:56:05.231Z,21.7
2018-11-03T17:58:04.954Z,21.7
2018-11-03T18:00:04.660Z,21.7
2018-11-03T18:02:04.871Z,21.7
2018-11-03T18:04:05.539Z,21.7
2018-11-03T18:06:05.262Z,21.7
2018-11-03T18:08:04.668Z,21.6
2018-11-03T18:10:10.535Z,21.7
2018-11-03T18:12:05.207Z,21.7
2018-11-03T18:14:05.552Z,21.7
2018-11-03T18:16:05.253Z,21.7
2018-11-03T18:18:07.664Z,21.7
2018-11-03T18:20:05.407Z,21.7
2018-11-03T18:22:05.090Z,21.7
2018-11-03T18:24:07.923Z,21.6
2018-11-03T18:26:05.620Z,21.6
2018-11-03T18:28:04.655Z,21.6
2018-11-03T18:30:05.527Z,21.6
2018-11-03T18:32:05.256Z,21.6
2018-11-03T18:34:05.578Z,21.6
2018-11-03T18:36:07.599Z,21.6
2018-11-03T18:38:10.357Z,21.6
2018-11-03T18:40:05.042Z,21.6
2018-11-03T18:42:04.718Z,21.6
2018-11-03T18:44:05.380Z,21.6
2018-11-03T18:46:05.604Z,21.6
2018-11-03T18:48:05.354Z,21.6
2018-11-03T18:50:05.013Z,21.6
2018-11-03T18:52:04.730Z,21.6
2018-11-03T18:54:05.477Z,21.5
2018-11-03T18:56:05.149Z,21.6
2018-11-03T18:58:04.845Z,21.6
2018-11-03T19:00:05.586Z,21.6
2018-11-03T19:02:05.297Z,21.6
2018-11-03T19:04:05.235Z,21.6
2018-11-03T19:06:04.947Z,21.6
2018-11-03T19:08:04.629Z,21.5
2018-11-03T19:10:05.332Z,21.5
2018-11-03T19:12:05.563Z,21.6
2018-11-03T19:14:05.237Z,21.6
2018-11-03T19:16:04.978Z,21.6
2018-11-03T19:18:04.881Z,21.6
2018-11-03T19:20:08.106Z,21.6
2018-11-03T19:22:04.811Z,21.6
2018-11-03T19:24:05.598Z,21.6
2018-11-03T19:26:04.726Z,21.5
2018-11-03T19:28:05.377Z,21.6
2018-11-03T19:30:07.621Z,21.5
2018-11-03T19:32:08.221Z,21.6
2018-11-03T19:34:05.147Z,21.6
2018-11-03T19:36:04.895Z,21.6
2018-11-03T19:38:05.113Z,21.6
2018-11-03T19:40:04.859Z,21.6
2018-11-03T19:42:05.089Z,21.6
2018-11-03T19:44:04.748Z,21.6
2018-11-03T19:46:07.906Z,21.5
2018-11-03T19:48:05.587Z,21.6
2018-11-03T19:50:05.071Z,21.6
2018-11-03T19:52:07.319Z,21.6
2018-11-03T19:54:07.524Z,21.6
2018-11-03T19:56:05.188Z,21.6
2018-11-03T19:58:05.582Z,21.6
2018-11-03T20:00:05.526Z,21.5
2018-11-03T20:02:05.145Z,21.6
2018-11-03T20:04:15.044Z,21.6
2018-11-03T20:06:04.713Z,21.6
2018-11-03T20:08:07.930Z,21.6
2018-11-03T20:10:04.828Z,21.5
2018-11-03T20:12:07.637Z,21.5
2018-11-03T20:14:05.376Z,21.5
2018-11-03T20:16:05.092Z,21.5
2018-11-03T20:18:05.693Z,21.5
2018-11-03T20:20:05.100Z,21.5
2018-11-03T20:22:04.889Z,21.5
2018-11-03T20:24:08.162Z,21.5
2018-11-03T20:26:04.904Z,21.6
2018-11-03T20:28:04.939Z,21.5
2018-11-03T20:30:04.647Z,21.5
2018-11-03T20:32:05.391Z,21.5
2018-11-03T20:34:05.114Z,21.5
2018-11-03T20:36:04.825Z,21.5
2018-11-03T20:38:05.552Z,21.4
2018-11-03T20:40:07.850Z,21.5
2018-11-03T20:42:08.136Z,21.5
2018-11-03T20:44:04.828Z,21.5
2018-11-03T20:46:08.076Z,21.5
2018-11-03T20:48:07.817Z,21.4
2018-11-03T20:50:05.066Z,21.5
2018-11-03T20:52:04.806Z,21.5
2018-11-03T20:54:05.497Z,21.5
2018-11-03T20:56:07.720Z,21.5
2018-11-03T20:58:05.461Z,21.5
2018-11-03T21:00:12.830Z,21.4
2018-11-03T21:02:05.558Z,21.5
2018-11-03T21:04:04.645Z,21.4
2018-11-03T21:06:07.869Z,21.5
2018-11-03T21:08:05.139Z,21.5
2018-11-03T21:10:07.376Z,21.5
2018-11-03T21:12:05.726Z,21.5
2018-11-03T21:14:05.644Z,21.5
2018-11-03T21:16:05.392Z,21.5
2018-11-03T21:18:05.660Z,21.5
2018-11-03T21:20:05.553Z,21.5
2018-11-03T21:22:05.227Z,21.5
2018-11-03T21:24:10.646Z,21.4
2018-11-03T21:26:05.272Z,21.4
2018-11-03T21:28:04.974Z,21.4
2018-11-03T21:30:04.891Z,21.4
2018-11-03T21:32:05.047Z,21.4
2018-11-03T21:34:05.631Z,21.4
2018-11-03T21:36:05.372Z,21.5
2018-11-03T21:38:05.179Z,21.4
2018-11-03T21:40:05.124Z,21.4
2018-11-03T21:42:07.875Z,21.4
2018-11-03T21:44:05.634Z,21.4
2018-11-03T21:46:04.989Z,21.4
2018-11-03T21:48:07.692Z,21.4
2018-11-03T21:50:10.453Z,21.4
2018-11-03T21:52:05.167Z,21.4
2018-11-03T21:54:04.957Z,21.4
2018-11-03T21:56:04.777Z,21.4
2018-11-03T21:58:05.371Z,21.3
2018-11-03T22:00:05.121Z,21.3
2018-11-03T22:02:04.926Z,21.4
2018-11-03T22:04:04.611Z,21.3
2018-11-03T22:06:07.964Z,21.4
2018-11-03T22:08:04.714Z,21.4
2018-11-03T22:10:05.421Z,21.4
2018-11-03T22:12:10.355Z,21.4
2018-11-03T22:14:08.251Z,21.4
2018-11-03T22:16:05.524Z,21.4
2018-11-03T22:18:05.421Z,21.4
2018-11-03T22:20:07.581Z,21.4
2018-11-03T22:22:05.256Z,21.3
2018-11-03T22:24:05.006Z,21.4
2018-11-03T22:26:04.692Z,21.4
2018-11-03T22:28:05.511Z,21.4
2018-11-03T22:30:05.106Z,21.3
2018-11-03T22:32:04.871Z,21.3
2018-11-03T22:34:08.144Z,21.4
2018-11-03T22:36:05.399Z,21.4
2018-11-03T22:38:05.091Z,21.3
2018-11-03T22:40:07.320Z,21.4
2018-11-03T22:42:05.234Z,21.4
2018-11-03T22:44:05.312Z,21.4
2018-11-03T22:46:05.129Z,21.4
2018-11-03T22:48:05.598Z,21.3
2018-11-03T22:50:04.841Z,21.3
2018-11-03T22:52:05.053Z,21.3
2018-11-03T22:54:04.759Z,21.4
2018-11-03T22:56:05.581Z,21.4
2018-11-03T22:58:05.277Z,21.4
2018-11-03T23:00:05.610Z,21.4
2018-11-03T23:02:05.462Z,21.4
2018-11-03T23:04:05.561Z,21.4
2018-11-03T23:06:05.257Z,21.3
2018-11-03T23:08:05.641Z,21.3
2018-11-03T23:10:05.318Z,21.3
2018-11-03T23:12:05.029Z,21.4
2018-11-03T23:14:04.780Z,21.3
2018-11-03T23:16:05.496Z,21.3
2018-11-03T23:18:05.440Z,21.3
2018-11-03T23:20:04.675Z,21.3
2018-11-03T23:22:05.416Z,21.4
2018-11-03T23:24:08.014Z,21.3
2018-11-03T23:26:09.768Z,21.3
2018-11-03T23:28:05.467Z,21.3
2018-11-03T23:30:12.935Z,21.3
2018-11-03T23:32:05.392Z,21.3
2018-11-03T23:34:05.124Z,21.3
2018-11-03T23:36:04.866Z,21.3
2018-11-03T23:38:10.678Z,21.3
2018-11-03T23:40:05.667Z,21.3
2018-11-03T23:42:05.387Z,21.3
2018-11-03T23:44:05.052Z,21.3
2018-11-03T23:46:07.269Z,21.3
2018-11-03T23:48:04.934Z,21.3
2018-11-03T23:50:07.715Z,21.3
2018-11-03T23:56:42.547Z,21.3
2018-11-03T23:58:05.249Z,21.3
